Time;durP1;ratioP1;P1;durP2;ratioP2;P2;SDS_P1;SDS_P2;PMS_P1;PMS_P2;Temp;Humidity;BMP_temperature;BMP_pressure;BME280_temperature;BME280_humidity;BME280_pressure;Samples;Min_cycle;Max_cycle;Signal;HPM_P1;HPM_P2
2023/12/09 00:00:28;;;;;;;35.70;7.90;;;;;;;;;;5075007;28;20254;-28
2023/12/09 00:02:53;;;;;;;32.85;9.02;;;;;;;;;;5075034;28;20711;-27
2023/12/09 00:05:18;;;;;;;30.40;8.37;;;;;;;;;;5075014;28;20074;-28
2023/12/09 00:07:43;;;;;;;29.27;8.20;;;;;;;;;;5075107;28;20291;-28
2023/12/09 00:10:09;;;;;;;42.28;9.07;;;;;;;;;;5073886;28;20745;-27
2023/12/09 00:12:34;;;;;;;31.92;8.10;;;;;;;;;;5074745;28;20031;-28
2023/12/09 00:14:59;;;;;;;39.17;8.83;;;;;;;;;;5074954;28;20016;-28
2023/12/09 00:17:25;;;;;;;38.73;8.43;;;;;;;;;;5074677;28;20350;-28
2023/12/09 00:19:50;;;;;;;28.45;7.70;;;;;;;;;;5075170;28;20273;-28
2023/12/09 00:22:15;;;;;;;32.73;8.23;;;;;;;;;;5074863;28;20016;-28
2023/12/09 00:24:40;;;;;;;33.33;8.20;;;;;;;;;;5075125;28;20254;-28
2023/12/09 00:27:05;;;;;;;38.28;8.00;;;;;;;;;;5074457;28;20771;-28
2023/12/09 00:29:30;;;;;;;39.23;8.30;;;;;;;;;;5074751;28;20288;-28
2023/12/09 00:31:55;;;;;;;39.03;8.37;;;;;;;;;;5074206;28;20290;-29
2023/12/09 00:34:21;;;;;;;34.30;8.63;;;;;;;;;;5073293;28;20266;-28
2023/12/09 00:36:46;;;;;;;29.50;7.53;;;;;;;;;;5072367;28;20262;-28
2023/12/09 00:39:11;;;;;;;32.10;8.73;;;;;;;;;;5072094;28;20029;-28
2023/12/09 00:41:36;;;;;;;26.97;7.67;;;;;;;;;;5072410;28;20270;-28
2023/12/09 00:44:01;;;;;;;33.75;7.45;;;;;;;;;;5072026;28;20315;-28
2023/12/09 00:46:26;;;;;;;30.27;7.57;;;;;;;;;;5071872;28;20808;-28
2023/12/09 00:48:52;;;;;;;27.03;7.80;;;;;;;;;;5072107;28;20266;-28
2023/12/09 00:51:17;;;;;;;29.67;7.82;;;;;;;;;;5070874;28;20333;-28
2023/12/09 00:53:42;;;;;;;39.00;8.70;;;;;;;;;;5074395;28;20016;-28
2023/12/09 00:56:08;;;;;;;37.70;7.43;;;;;;;;;;5073752;28;20265;-28
2023/12/09 00:58:33;;;;;;;39.53;7.30;;;;;;;;;;5073890;28;20644;-28
2023/12/09 01:00:58;;;;;;;40.97;7.53;;;;;;;;;;5073913;28;20036;-27
2023/12/09 01:03:23;;;;;;;35.63;7.35;;;;;;;;;;5074104;28;20059;-28
2023/12/09 01:05:48;;;;;;;30.58;6.70;;;;;;;;;;5073803;28;20027;-28
2023/12/09 01:08:14;;;;;;;34.63;7.53;;;;;;;;;;5073711;28;20432;-27
2023/12/09 01:10:39;;;;;;;30.20;6.72;;;;;;;;;;5073716;28;20305;-28
2023/12/09 01:13:04;;;;;;;34.40;6.72;;;;;;;;;;5073903;28;20448;-28
2023/12/09 01:15:29;;;;;;;27.40;6.15;;;;;;;;;;5073727;28;20023;-28
2023/12/09 01:17:54;;;;;;;24.97;6.93;;;;;;;;;;5074222;28;20028;-28
2023/12/09 01:20:19;;;;;;;33.03;7.45;;;;;;;;;;5073841;28;20255;-28
2023/12/09 01:22:45;;;;;;;29.13;7.60;;;;;;;;;;5073569;28;20017;-28
2023/12/09 01:25:10;;;;;;;36.57;7.23;;;;;;;;;;5074142;28;20308;-28
2023/12/09 01:27:35;;;;;;;31.80;6.88;;;;;;;;;;5073432;28;20304;-28
2023/12/09 01:30:01;;;;;;;32.03;7.53;;;;;;;;;;5073771;28;20062;-28
2023/12/09 01:32:26;;;;;;;27.13;6.47;;;;;;;;;;5073766;28;20027;-28
2023/12/09 01:34:51;;;;;;;31.00;6.80;;;;;;;;;;5073688;28;20109;-28
2023/12/09 01:37:16;;;;;;;31.60;7.18;;;;;;;;;;5073389;28;20660;-28
2023/12/09 01:39:42;;;;;;;35.33;6.78;;;;;;;;;;5073394;28;20024;-28
2023/12/09 01:42:08;;;;;;;32.00;6.68;;;;;;;;;;5073667;28;20025;-28
2023/12/09 01:44:33;;;;;;;31.08;7.35;;;;;;;;;;5072355;28;20058;-28
2023/12/09 01:46:58;;;;;;;32.88;7.60;;;;;;;;;;5073786;28;20029;-28
2023/12/09 01:49:23;;;;;;;29.60;6.78;;;;;;;;;;5073296;28;20099;-35
2023/12/09 01:51:49;;;;;;;29.20;6.65;;;;;;;;;;5073837;28;20028;-28
2023/12/09 01:54:14;;;;;;;28.67;6.80;;;;;;;;;;5073171;28;20066;-28
2023/12/09 01:56:40;;;;;;;32.30;7.03;;;;;;;;;;5073806;28;20062;-28
2023/12/09 01:59:05;;;;;;;37.13;6.85;;;;;;;;;;5073409;28;20587;-28
2023/12/09 02:01:32;;;;;;;34.90;7.05;;;;;;;;;;5073081;28;20056;-28
2023/12/09 02:03:58;;;;;;;26.30;7.00;;;;;;;;;;5073059;28;20019;-28
2023/12/09 02:06:23;;;;;;;27.40;6.78;;;;;;;;;;5073023;28;20029;-28
2023/12/09 02:08:48;;;;;;;34.83;7.45;;;;;;;;;;5071811;28;20040;-28
2023/12/09 02:11:13;;;;;;;26.70;6.57;;;;;;;;;;5073013;28;20069;-28
2023/12/09 02:13:52;;;;;;;37.20;6.47;;;;;;;;;;5073326;28;20039;-28
2023/12/09 02:16:19;;;;;;;32.00;6.60;;;;;;;;;;5072993;28;20024;-28
2023/12/09 02:18:45;;;;;;;26.58;6.45;;;;;;;;;;5073550;28;20028;-28
2023/12/09 02:21:10;;;;;;;30.52;6.32;;;;;;;;;;5072954;28;20082;-28
2023/12/09 02:23:35;;;;;;;31.47;6.70;;;;;;;;;;5073584;28;20039;-28
2023/12/09 02:26:04;;;;;;;39.00;6.90;;;;;;;;;;5072832;28;20259;-28
2023/12/09 02:28:31;;;;;;;25.63;6.22;;;;;;;;;;5072984;28;20265;-28
2023/12/09 02:30:56;;;;;;;28.48;6.15;;;;;;;;;;5072922;28;20418;-28
2023/12/09 02:33:22;;;;;;;29.60;6.45;;;;;;;;;;5072852;28;20085;-28
2023/12/09 02:35:50;;;;;;;28.55;6.28;;;;;;;;;;5072897;28;20027;-28
2023/12/09 02:38:16;;;;;;;24.42;6.45;;;;;;;;;;5072848;28;20035;-28
2023/12/09 02:40:41;;;;;;;34.03;7.25;;;;;;;;;;5073089;28;20348;-27
2023/12/09 02:43:07;;;;;;;29.60;6.72;;;;;;;;;;5073066;28;20031;-27
2023/12/09 02:45:32;;;;;;;29.65;6.57;;;;;;;;;;5073290;28;20024;-28
2023/12/09 02:47:57;;;;;;;28.95;6.65;;;;;;;;;;5072966;28;20485;-28
2023/12/09 02:50:22;;;;;;;34.87;7.17;;;;;;;;;;5073347;28;20016;-27
2023/12/09 02:52:48;;;;;;;26.83;6.93;;;;;;;;;;5072666;28;20377;-28
2023/12/09 02:55:13;;;;;;;28.05;6.25;;;;;;;;;;5074574;28;20270;-27
2023/12/09 02:57:38;;;;;;;25.75;6.28;;;;;;;;;;5076269;28;20051;-28
2023/12/09 03:00:05;;;;;;;23.57;6.40;;;;;;;;;;5076242;28;20021;-28
2023/12/09 03:02:31;;;;;;;24.30;6.72;;;;;;;;;;5076152;28;20824;-28
2023/12/09 03:04:57;;;;;;;28.42;6.43;;;;;;;;;;5076094;28;20036;-28
2023/12/09 03:07:22;;;;;;;25.17;5.90;;;;;;;;;;5076255;28;20528;-28
2023/12/09 03:09:47;;;;;;;22.03;6.70;;;;;;;;;;5076304;28;20047;-28
2023/12/09 03:12:12;;;;;;;22.08;6.22;;;;;;;;;;5076376;28;20247;-28
2023/12/09 03:14:38;;;;;;;22.67;6.27;;;;;;;;;;5075987;28;20016;-28
2023/12/09 03:17:03;;;;;;;20.13;5.97;;;;;;;;;;5076212;28;20302;-28
2023/12/09 03:19:29;;;;;;;33.22;6.82;;;;;;;;;;5075856;28;20020;-28
2023/12/09 03:21:54;;;;;;;28.83;6.37;;;;;;;;;;5076375;28;20016;-26
2023/12/09 03:24:19;;;;;;;28.73;6.20;;;;;;;;;;5075692;28;20262;-26
2023/12/09 03:26:48;;;;;;;29.03;6.93;;;;;;;;;;5075546;28;20372;-26
2023/12/09 03:29:13;;;;;;;26.90;6.25;;;;;;;;;;5075549;28;20610;-26
2023/12/09 03:31:39;;;;;;;35.57;6.27;;;;;;;;;;5075521;28;20024;-26
2023/12/09 03:34:04;;;;;;;36.17;6.72;;;;;;;;;;5075349;28;20267;-26
2023/12/09 03:36:29;;;;;;;26.93;6.47;;;;;;;;;;5075723;28;20024;-26
2023/12/09 03:38:55;;;;;;;30.77;6.95;;;;;;;;;;5075725;28;20263;-26
2023/12/09 03:41:20;;;;;;;34.97;6.88;;;;;;;;;;5075949;28;20067;-26
2023/12/09 03:43:45;;;;;;;27.23;6.80;;;;;;;;;;5075684;28;20020;-26
2023/12/09 03:46:12;;;;;;;32.50;6.77;;;;;;;;;;5075248;28;20020;-26
2023/12/09 03:48:37;;;;;;;26.40;6.65;;;;;;;;;;5075531;28;20609;-26
2023/12/09 03:51:02;;;;;;;37.60;6.82;;;;;;;;;;5075224;28;20016;-26
2023/12/09 03:53:27;;;;;;;34.78;6.80;;;;;;;;;;5075147;28;20017;-26
2023/12/09 03:55:53;;;;;;;22.27;6.53;;;;;;;;;;5075689;28;20020;-26
2023/12/09 03:58:19;;;;;;;26.73;6.60;;;;;;;;;;5074995;28;20603;-26
2023/12/09 04:00:45;;;;;;;26.00;6.40;;;;;;;;;;5074837;28;20021;-26
2023/12/09 04:03:11;;;;;;;30.05;6.90;;;;;;;;;;5075569;28;20019;-26
2023/12/09 04:05:36;;;;;;;24.08;6.70;;;;;;;;;;5075438;28;20020;-26
2023/12/09 04:08:01;;;;;;;32.60;6.63;;;;;;;;;;5074261;28;20103;-26
2023/12/09 04:10:26;;;;;;;28.77;6.78;;;;;;;;;;5075099;28;20262;-26
2023/12/09 04:12:51;;;;;;;37.97;7.25;;;;;;;;;;5074728;28;20488;-26
2023/12/09 04:15:17;;;;;;;29.00;7.30;;;;;;;;;;5075354;28;20017;-26
2023/12/09 04:17:42;;;;;;;34.03;7.40;;;;;;;;;;5074994;28;20308;-26
2023/12/09 04:20:08;;;;;;;27.17;7.20;;;;;;;;;;5074947;28;20262;-26
2023/12/09 04:22:36;;;;;;;28.77;7.25;;;;;;;;;;5074908;28;20481;-26
2023/12/09 04:25:04;;;;;;;30.45;7.40;;;;;;;;;;5075087;28;20021;-26
2023/12/09 04:27:30;;;;;;;26.52;6.85;;;;;;;;;;5073190;28;20475;-26
2023/12/09 04:29:55;;;;;;;39.45;7.88;;;;;;;;;;5074717;28;20009;-26
2023/12/09 04:32:20;;;;;;;26.57;7.00;;;;;;;;;;5074701;28;20016;-26
2023/12/09 04:34:45;;;;;;;41.87;7.60;;;;;;;;;;5074654;28;20278;-26
2023/12/09 04:37:10;;;;;;;33.38;7.15;;;;;;;;;;5074586;28;20338;-27
2023/12/09 04:39:36;;;;;;;30.60;7.33;;;;;;;;;;5074258;28;20384;-26
2023/12/09 04:42:01;;;;;;;26.53;6.70;;;;;;;;;;5074779;28;20251;-27
2023/12/09 04:44:26;;;;;;;46.73;7.37;;;;;;;;;;5074170;28;20609;-27
2023/12/09 04:46:51;;;;;;;32.78;6.53;;;;;;;;;;5074553;28;20308;-27
2023/12/09 04:49:16;;;;;;;34.70;7.25;;;;;;;;;;5074375;28;20024;-26
2023/12/09 04:51:42;;;;;;;33.97;6.87;;;;;;;;;;5074125;28;20425;-26
2023/12/09 04:54:07;;;;;;;30.07;6.43;;;;;;;;;;5074023;28;20301;-27
2023/12/09 04:56:32;;;;;;;29.15;7.03;;;;;;;;;;5072627;28;20754;-27
2023/12/09 04:58:58;;;;;;;33.28;6.88;;;;;;;;;;5074220;28;20027;-27
2023/12/09 05:01:23;;;;;;;23.57;6.70;;;;;;;;;;5073790;28;20522;-27
2023/12/09 05:03:48;;;;;;;33.10;6.60;;;;;;;;;;5073801;28;20266;-27
2023/12/09 05:06:13;;;;;;;26.92;6.55;;;;;;;;;;5073721;28;20100;-27
2023/12/09 05:08:41;;;;;;;27.83;6.70;;;;;;;;;;5073787;28;20378;-27
2023/12/09 05:11:07;;;;;;;28.40;5.95;;;;;;;;;;5073969;28;20614;-27
2023/12/09 05:13:32;;;;;;;31.80;6.68;;;;;;;;;;5073737;28;20024;-27
2023/12/09 05:15:57;;;;;;;36.87;7.60;;;;;;;;;;5074205;28;20016;-27
2023/12/09 05:18:22;;;;;;;26.23;7.10;;;;;;;;;;5073438;28;20791;-27
2023/12/09 05:20:47;;;;;;;31.67;6.80;;;;;;;;;;5074129;28;20263;-27
2023/12/09 05:23:13;;;;;;;34.93;7.53;;;;;;;;;;5073545;28;20729;-27
2023/12/09 05:25:38;;;;;;;27.00;6.93;;;;;;;;;;5074088;28;20263;-27
2023/12/09 05:28:03;;;;;;;24.07;6.67;;;;;;;;;;5073483;28;20267;-27
2023/12/09 05:30:28;;;;;;;27.02;7.15;;;;;;;;;;5073753;28;20251;-26
2023/12/09 05:32:53;;;;;;;29.20;6.83;;;;;;;;;;5073461;28;20048;-27
2023/12/09 05:35:18;;;;;;;30.37;6.93;;;;;;;;;;5073990;28;20272;-26
2023/12/09 05:37:44;;;;;;;29.53;7.50;;;;;;;;;;5073356;28;20265;-27
2023/12/09 05:40:09;;;;;;;33.90;7.40;;;;;;;;;;5073927;28;20313;-27
2023/12/09 05:42:34;;;;;;;29.58;7.30;;;;;;;;;;5073406;28;20271;-27
2023/12/09 05:45:00;;;;;;;34.75;7.80;;;;;;;;;;5073392;28;20066;-27
2023/12/09 05:47:25;;;;;;;28.45;7.07;;;;;;;;;;5073525;28;20020;-27
2023/12/09 05:49:50;;;;;;;29.35;7.13;;;;;;;;;;5073245;28;20023;-27
2023/12/09 05:52:15;;;;;;;29.92;7.30;;;;;;;;;;5073236;28;20024;-27
2023/12/09 05:54:40;;;;;;;31.10;7.13;;;;;;;;;;5073238;28;20023;-27
2023/12/09 05:57:06;;;;;;;27.67;6.53;;;;;;;;;;5073286;28;20251;-27
2023/12/09 05:59:31;;;;;;;26.00;6.32;;;;;;;;;;5073472;28;20293;-27
2023/12/09 06:01:56;;;;;;;25.42;6.57;;;;;;;;;;5073063;28;20052;-27
2023/12/09 06:04:21;;;;;;;28.90;7.60;;;;;;;;;;5073350;28;20020;-27
2023/12/09 06:06:46;;;;;;;30.05;7.28;;;;;;;;;;5073313;28;20318;-27
2023/12/09 06:09:12;;;;;;;26.17;7.33;;;;;;;;;;5073130;28;20017;-26
2023/12/09 06:11:37;;;;;;;27.48;7.20;;;;;;;;;;5072992;28;20286;-27
2023/12/09 06:14:02;;;;;;;30.23;6.87;;;;;;;;;;5073614;28;20046;-26
2023/12/09 06:16:28;;;;;;;21.27;5.88;;;;;;;;;;5072998;28;20263;-26
2023/12/09 06:18:53;;;;;;;27.98;6.47;;;;;;;;;;5073268;28;20434;-27
2023/12/09 06:21:22;;;;;;;29.10;7.20;;;;;;;;;;5072980;28;20017;-27
2023/12/09 06:23:47;;;;;;;26.52;6.75;;;;;;;;;;5073742;28;20020;-27
2023/12/09 06:26:12;;;;;;;33.78;7.15;;;;;;;;;;5072887;28;20072;-27
2023/12/09 06:28:37;;;;;;;29.20;6.80;;;;;;;;;;5073430;28;20016;-27
2023/12/09 06:31:02;;;;;;;24.50;6.50;;;;;;;;;;5075652;28;20308;-27
2023/12/09 06:33:28;;;;;;;38.30;6.93;;;;;;;;;;5077197;28;20330;-27
2023/12/09 06:35:53;;;;;;;31.00;6.63;;;;;;;;;;5077188;28;20017;-27
2023/12/09 06:38:18;;;;;;;38.27;7.83;;;;;;;;;;5076883;28;20652;-27
2023/12/09 06:40:43;;;;;;;21.15;6.32;;;;;;;;;;5076820;28;20354;-27
2023/12/09 06:43:08;;;;;;;23.13;6.37;;;;;;;;;;5077070;28;20025;-27
2023/12/09 06:45:33;;;;;;;28.60;7.20;;;;;;;;;;5076399;28;20254;-27
2023/12/09 06:47:59;;;;;;;26.13;7.80;;;;;;;;;;5076892;28;20279;-27
2023/12/09 06:50:24;;;;;;;32.50;7.53;;;;;;;;;;5076538;28;20785;-27
2023/12/09 06:52:49;;;;;;;30.13;8.60;;;;;;;;;;5076877;28;20277;-27
2023/12/09 06:55:14;;;;;;;36.28;8.45;;;;;;;;;;5076531;28;20251;-27
2023/12/09 06:57:39;;;;;;;43.25;8.65;;;;;;;;;;5075023;28;20020;-27
2023/12/09 07:00:07;;;;;;;25.53;7.47;;;;;;;;;;5075288;28;20025;-27
2023/12/09 07:02:33;;;;;;;25.75;7.22;;;;;;;;;;5076017;28;20377;-27
2023/12/09 07:04:58;;;;;;;26.03;7.17;;;;;;;;;;5076686;28;20024;-27
2023/12/09 07:07:23;;;;;;;34.33;8.87;;;;;;;;;;5074766;28;20275;-26
2023/12/09 07:09:48;;;;;;;29.97;8.50;;;;;;;;;;5076912;28;20247;-27
2023/12/09 07:12:13;;;;;;;29.50;8.73;;;;;;;;;;5076151;28;20342;-26
2023/12/09 07:14:38;;;;;;;32.37;8.50;;;;;;;;;;5076542;28;20021;-26
2023/12/09 07:17:04;;;;;;;24.40;7.80;;;;;;;;;;5075832;28;20271;-27
2023/12/09 07:19:29;;;;;;;40.50;8.67;;;;;;;;;;5076402;28;20266;-27
2023/12/09 07:21:54;;;;;;;27.27;8.23;;;;;;;;;;5076353;28;20626;-27
2023/12/09 07:24:19;;;;;;;32.85;8.73;;;;;;;;;;5075919;28;20271;-27
2023/12/09 07:26:44;;;;;;;30.20;8.03;;;;;;;;;;5076231;28;20024;-27
2023/12/09 07:29:10;;;;;;;30.20;7.65;;;;;;;;;;5076203;28;20247;-26
2023/12/09 07:31:35;;;;;;;27.30;7.35;;;;;;;;;;5075568;28;20017;-27
2023/12/09 07:34:00;;;;;;;31.63;8.13;;;;;;;;;;5076140;28;20017;-26
2023/12/09 07:36:25;;;;;;;24.77;6.97;;;;;;;;;;5075508;28;20769;-27
2023/12/09 07:38:50;;;;;;;22.30;6.83;;;;;;;;;;5075536;28;20487;-27
2023/12/09 07:41:16;;;;;;;27.05;6.50;;;;;;;;;;5076121;28;20263;-27
2023/12/09 07:43:41;;;;;;;27.77;6.32;;;;;;;;;;5075296;28;20426;-27
2023/12/09 07:46:06;;;;;;;29.88;6.80;;;;;;;;;;5075385;28;20058;-26
2023/12/09 07:48:31;;;;;;;24.20;7.18;;;;;;;;;;5075211;28;20028;-27
2023/12/09 07:50:57;;;;;;;30.73;6.77;;;;;;;;;;5075209;28;20027;-26
2023/12/09 07:53:22;;;;;;;30.90;6.65;;;;;;;;;;5074133;28;20278;-26
2023/12/09 07:55:47;;;;;;;26.70;6.43;;;;;;;;;;5075299;28;20024;-26
2023/12/09 07:58:12;;;;;;;22.43;5.97;;;;;;;;;;5073736;28;20043;-27
2023/12/09 08:00:37;;;;;;;21.67;6.28;;;;;;;;;;5073081;28;20270;-27
2023/12/09 08:03:04;;;;;;;27.40;6.43;;;;;;;;;;5072938;28;20044;-27
2023/12/09 08:05:29;;;;;;;30.75;6.43;;;;;;;;;;5073191;28;20345;-27
2023/12/09 08:07:54;;;;;;;26.57;6.40;;;;;;;;;;5072952;28;20116;-27
2023/12/09 08:10:19;;;;;;;28.40;5.13;;;;;;;;;;5072947;28;20270;-27
2023/12/09 08:12:45;;;;;;;28.67;6.22;;;;;;;;;;5073691;28;20752;-27
2023/12/09 08:15:10;;;;;;;27.25;6.13;;;;;;;;;;5075129;28;20422;-28
2023/12/09 08:17:35;;;;;;;24.75;5.68;;;;;;;;;;5074910;28;20356;-28
2023/12/09 08:20:01;;;;;;;26.60;6.77;;;;;;;;;;5075244;28;20021;-27
2023/12/09 08:22:26;;;;;;;26.60;6.90;;;;;;;;;;5074902;28;20709;-27
2023/12/09 08:24:51;;;;;;;27.83;6.05;;;;;;;;;;5074500;28;20296;-27
2023/12/09 08:27:16;;;;;;;32.63;6.07;;;;;;;;;;5073285;28;20108;-27
2023/12/09 08:29:42;;;;;;;23.13;5.63;;;;;;;;;;5075027;28;20055;-27
2023/12/09 08:32:09;;;;;;;22.00;5.13;;;;;;;;;;5074454;28;20736;-28
2023/12/09 08:34:34;;;;;;;21.15;4.95;;;;;;;;;;5074349;28;20300;-27
2023/12/09 08:36:59;;;;;;;17.90;5.37;;;;;;;;;;5074806;28;20028;-27
2023/12/09 08:39:24;;;;;;;19.63;5.38;;;;;;;;;;5074533;28;20266;-27
2023/12/09 08:41:49;;;;;;;20.27;4.97;;;;;;;;;;5074766;28;20028;-27
2023/12/09 08:44:14;;;;;;;23.23;4.75;;;;;;;;;;5074227;28;20736;-27
2023/12/09 08:46:40;;;;;;;15.13;4.37;;;;;;;;;;5074679;28;20275;-27
2023/12/09 08:49:05;;;;;;;17.23;4.22;;;;;;;;;;5074063;28;20257;-27
2023/12/09 08:51:30;;;;;;;25.10;5.00;;;;;;;;;;5074172;28;20103;-27
2023/12/09 08:53:55;;;;;;;17.97;3.73;;;;;;;;;;5073603;28;20251;-27
2023/12/09 08:56:20;;;;;;;19.80;5.23;;;;;;;;;;5074523;28;20259;-27
2023/12/09 08:58:46;;;;;;;19.10;4.80;;;;;;;;;;5073815;28;20808;-27
2023/12/09 09:01:12;;;;;;;20.23;4.77;;;;;;;;;;5073864;28;20275;-27
2023/12/09 09:03:37;;;;;;;22.25;4.63;;;;;;;;;;5073946;28;20289;-27
2023/12/09 09:06:02;;;;;;;19.83;4.13;;;;;;;;;;5073534;28;20020;-27
2023/12/09 09:08:28;;;;;;;25.20;4.50;;;;;;;;;;5072180;28;20287;-27
2023/12/09 09:10:53;;;;;;;15.48;4.00;;;;;;;;;;5073883;28;20047;-27
2023/12/09 09:13:19;;;;;;;16.57;4.10;;;;;;;;;;5074207;28;20048;-27
2023/12/09 09:15:44;;;;;;;17.00;3.80;;;;;;;;;;5073591;28;20251;-27
2023/12/09 09:18:09;;;;;;;23.10;4.22;;;;;;;;;;5074197;28;20017;-27
2023/12/09 09:20:34;;;;;;;17.63;3.77;;;;;;;;;;5072374;28;20082;-27
2023/12/09 09:22:59;;;;;;;20.10;3.70;;;;;;;;;;5073627;28;20267;-27
2023/12/09 09:25:25;;;;;;;19.20;3.97;;;;;;;;;;5073476;28;20024;-27
2023/12/09 09:27:51;;;;;;;19.25;4.55;;;;;;;;;;5073787;28;20075;-27
2023/12/09 09:30:17;;;;;;;15.27;3.38;;;;;;;;;;5073844;28;20024;-27
2023/12/09 09:32:43;;;;;;;18.42;3.90;;;;;;;;;;5073755;28;20031;-27
2023/12/09 09:35:08;;;;;;;17.75;3.40;;;;;;;;;;5073990;28;20092;-27
2023/12/09 09:37:35;;;;;;;22.25;3.45;;;;;;;;;;5073431;28;20063;-27
2023/12/09 09:40:04;;;;;;;19.00;3.42;;;;;;;;;;5073732;28;20375;-27
2023/12/09 09:42:33;;;;;;;15.07;2.92;;;;;;;;;;5073606;28;20069;-27
2023/12/09 09:45:14;;;;;;;18.48;4.05;;;;;;;;;;5073350;28;20107;-27
2023/12/09 09:47:41;;;;;;;18.88;3.40;;;;;;;;;;5073009;28;20593;-27
2023/12/09 09:50:06;;;;;;;22.70;3.70;;;;;;;;;;5073066;28;20372;-27
2023/12/09 09:52:34;;;;;;;18.42;3.33;;;;;;;;;;5073217;28;20021;-27
2023/12/09 09:55:00;;;;;;;19.90;3.50;;;;;;;;;;5073243;28;20075;-27
2023/12/09 09:57:25;;;;;;;9.90;3.10;;;;;;;;;;5073869;28;20017;-27
2023/12/09 09:59:53;;;;;;;17.07;2.90;;;;;;;;;;5073532;28;20027;-27
2023/12/09 10:02:19;;;;;;;19.92;3.55;;;;;;;;;;5072699;28;20291;-28
2023/12/09 10:04:44;;;;;;;21.58;3.45;;;;;;;;;;5074268;28;20027;-27
2023/12/09 10:07:10;;;;;;;19.75;3.42;;;;;;;;;;5077554;28;20028;-27
2023/12/09 10:09:35;;;;;;;18.33;3.30;;;;;;;;;;5077370;28;20112;-27
2023/12/09 10:12:00;;;;;;;19.27;3.17;;;;;;;;;;5077062;28;20063;-27
2023/12/09 10:14:26;;;;;;;15.33;3.33;;;;;;;;;;5077359;28;20330;-27
2023/12/09 10:16:52;;;;;;;20.17;3.13;;;;;;;;;;5076837;28;20258;-28
2023/12/09 10:19:19;;;;;;;12.48;3.08;;;;;;;;;;5076919;28;20024;-27
2023/12/09 10:21:44;;;;;;;11.60;3.15;;;;;;;;;;5077128;28;20024;-28
2023/12/09 10:24:09;;;;;;;19.02;3.70;;;;;;;;;;5077099;28;20375;-27
2023/12/09 10:26:34;;;;;;;13.50;2.87;;;;;;;;;;5076710;28;20456;-27
2023/12/09 10:29:00;;;;;;;11.53;2.93;;;;;;;;;;5076717;28;20262;-27
2023/12/09 10:31:26;;;;;;;14.32;3.00;;;;;;;;;;5076722;28;20243;-27
2023/12/09 10:33:52;;;;;;;18.95;3.25;;;;;;;;;;5076551;28;20056;-27
2023/12/09 10:36:17;;;;;;;16.67;3.20;;;;;;;;;;5076527;28;20123;-27
2023/12/09 10:38:45;;;;;;;9.80;2.90;;;;;;;;;;5076649;28;20431;-27
2023/12/09 10:41:13;;;;;;;15.30;3.10;;;;;;;;;;5076505;28;20262;-27
2023/12/09 10:43:40;;;;;;;12.80;2.80;;;;;;;;;;5076714;28;20027;-27
2023/12/09 10:46:05;;;;;;;19.58;3.10;;;;;;;;;;5076572;28;20029;-28
2023/12/09 10:48:31;;;;;;;11.23;3.00;;;;;;;;;;5076362;28;20422;-27
2023/12/09 10:50:57;;;;;;;9.55;2.47;;;;;;;;;;5076584;28;20463;-27
2023/12/09 10:53:22;;;;;;;14.63;2.83;;;;;;;;;;5076562;28;20028;-28
2023/12/09 10:55:47;;;;;;;12.93;2.43;;;;;;;;;;5076148;28;20013;-27
2023/12/09 10:58:13;;;;;;;9.55;2.60;;;;;;;;;;5076320;28;20312;-27
2023/12/09 11:00:39;;;;;;;16.23;3.22;;;;;;;;;;5076015;28;20108;-27
2023/12/09 11:03:04;;;;;;;18.55;3.05;;;;;;;;;;5074252;28;20059;-27
2023/12/09 11:05:33;;;;;;;10.98;2.80;;;;;;;;;;5074428;28;20073;-27
2023/12/09 11:08:00;;;;;;;11.05;2.70;;;;;;;;;;5074558;28;20027;-27
2023/12/09 11:10:25;;;;;;;14.77;4.32;;;;;;;;;;5074757;28;20046;-27
2023/12/09 11:12:50;;;;;;;11.73;2.42;;;;;;;;;;5074163;28;20095;-27
2023/12/09 11:15:19;;;;;;;17.50;2.72;;;;;;;;;;5074443;28;20020;-27
2023/12/09 11:17:44;;;;;;;16.90;2.58;;;;;;;;;;5074667;28;20024;-27
2023/12/09 11:20:09;;;;;;;9.38;2.40;;;;;;;;;;5074305;28;20108;-27
2023/12/09 11:22:38;;;;;;;12.40;2.53;;;;;;;;;;5074745;28;20021;-27
2023/12/09 11:25:04;;;;;;;9.40;2.53;;;;;;;;;;5074522;28;20078;-27
2023/12/09 11:27:29;;;;;;;10.27;2.67;;;;;;;;;;5074665;28;20406;-27
2023/12/09 11:29:54;;;;;;;12.00;2.93;;;;;;;;;;5074224;28;20475;-27
2023/12/09 11:32:20;;;;;;;14.30;2.70;;;;;;;;;;5074676;28;20312;-27
2023/12/09 11:34:45;;;;;;;12.65;2.58;;;;;;;;;;5074491;28;20809;-28
2023/12/09 11:37:13;;;;;;;13.35;2.55;;;;;;;;;;5056185;28;20108;-27
2023/12/09 11:39:40;;;;;;;12.52;2.30;;;;;;;;;;5074220;28;20051;-27
2023/12/09 11:42:06;;;;;;;10.88;2.55;;;;;;;;;;5074182;28;20031;-27
2023/12/09 11:44:31;;;;;;;15.73;2.55;;;;;;;;;;5073956;28;20115;-28
2023/12/09 11:46:56;;;;;;;11.07;2.15;;;;;;;;;;5073489;28;20013;-29
2023/12/09 11:49:22;;;;;;;14.35;2.38;;;;;;;;;;5074333;28;20020;-27
2023/12/09 11:51:47;;;;;;;10.35;2.28;;;;;;;;;;5073786;28;20020;-27
2023/12/09 11:54:13;;;;;;;10.02;2.42;;;;;;;;;;5074145;28;20015;-27
2023/12/09 11:56:38;;;;;;;11.15;2.58;;;;;;;;;;5073977;28;20487;-27
2023/12/09 11:59:05;;;;;;;8.20;2.05;;;;;;;;;;5073650;28;20091;-27
2023/12/09 12:01:31;;;;;;;11.40;1.88;;;;;;;;;;5037564;28;1042145;-27
2023/12/09 12:03:57;;;;;;;10.27;2.55;;;;;;;;;;5074737;28;20480;-27
2023/12/09 12:06:22;;;;;;;9.63;2.35;;;;;;;;;;5074188;28;20043;-28
2023/12/09 12:08:48;;;;;;;9.77;1.98;;;;;;;;;;5074732;28;20020;-28
2023/12/09 12:11:15;;;;;;;5.90;1.90;;;;;;;;;;5074747;28;20074;-27
2023/12/09 12:13:40;;;;;;;12.57;3.17;;;;;;;;;;5073077;28;20016;-27
2023/12/09 12:16:06;;;;;;;10.77;2.35;;;;;;;;;;5074452;28;20023;-27
2023/12/09 12:18:32;;;;;;;10.15;2.80;;;;;;;;;;5074245;28;20024;-27
2023/12/09 12:20:57;;;;;;;9.52;2.47;;;;;;;;;;5074422;28;20487;-27
2023/12/09 12:23:22;;;;;;;9.95;2.40;;;;;;;;;;5074312;28;20021;-27
2023/12/09 12:25:49;;;;;;;9.18;2.45;;;;;;;;;;5074059;28;20371;-27
2023/12/09 12:28:14;;;;;;;8.32;2.20;;;;;;;;;;5072706;28;20017;-27
2023/12/09 12:30:41;;;;;;;9.20;1.52;;;;;;;;;;5071713;28;20029;-27
2023/12/09 12:33:06;;;;;;;8.52;2.00;;;;;;;;;;5074227;28;20016;-27
2023/12/09 12:35:32;;;;;;;7.65;2.13;;;;;;;;;;5073804;28;20455;-27
2023/12/09 12:37:57;;;;;;;11.38;2.33;;;;;;;;;;5072566;28;20021;-27
2023/12/09 12:40:23;;;;;;;7.85;2.28;;;;;;;;;;5073782;28;20130;-27
2023/12/09 12:42:48;;;;;;;5.35;1.95;;;;;;;;;;5073759;28;20112;-26
2023/12/09 12:45:20;;;;;;;6.57;1.75;;;;;;;;;;5073878;28;20013;-26
2023/12/09 12:47:45;;;;;;;8.75;1.80;;;;;;;;;;5073884;28;20165;-27
2023/12/09 12:50:11;;;;;;;7.47;1.65;;;;;;;;;;5073766;28;20100;-27
2023/12/09 12:52:36;;;;;;;5.80;1.67;;;;;;;;;;5073724;28;20379;-28
2023/12/09 12:55:03;;;;;;;6.22;1.52;;;;;;;;;;5074199;28;20074;-27
2023/12/09 12:57:28;;;;;;;11.38;1.88;;;;;;;;;;5073467;28;20104;-28
2023/12/09 12:59:54;;;;;;;6.13;1.42;;;;;;;;;;5074121;28;20047;-27
2023/12/09 13:02:22;;;;;;;5.25;1.80;;;;;;;;;;5073210;28;20098;-27
2023/12/09 13:04:47;;;;;;;6.22;2.10;;;;;;;;;;5072616;28;20078;-27
2023/12/09 13:07:12;;;;;;;4.68;1.65;;;;;;;;;;5073071;28;20020;-27
2023/12/09 13:09:37;;;;;;;6.75;1.90;;;;;;;;;;5073346;28;20081;-27
2023/12/09 13:12:03;;;;;;;7.57;1.60;;;;;;;;;;5073303;28;20031;-27
2023/12/09 13:14:28;;;;;;;8.00;1.80;;;;;;;;;;5073460;28;20107;-27
2023/12/09 13:16:53;;;;;;;4.97;1.75;;;;;;;;;;5072361;28;20100;-27
2023/12/09 13:19:19;;;;;;;3.28;1.40;;;;;;;;;;5072661;28;20512;-27
2023/12/09 13:21:44;;;;;;;5.43;1.90;;;;;;;;;;5073527;28;20131;-27
2023/12/09 13:24:10;;;;;;;5.65;1.42;;;;;;;;;;5073050;28;20024;-27
2023/12/09 13:26:36;;;;;;;3.53;1.63;;;;;;;;;;5073115;28;20171;-27
2023/12/09 13:29:01;;;;;;;4.75;1.80;;;;;;;;;;5073271;28;20079;-28
2023/12/09 13:31:26;;;;;;;7.40;1.55;;;;;;;;;;5073790;28;20345;-27
2023/12/09 13:33:51;;;;;;;7.03;1.67;;;;;;;;;;5073378;28;20013;-27
2023/12/09 13:36:17;;;;;;;5.20;1.50;;;;;;;;;;5073442;28;20028;-27
2023/12/09 13:38:42;;;;;;;8.57;1.50;;;;;;;;;;5073287;28;20415;-27
2023/12/09 13:41:07;;;;;;;6.72;1.20;;;;;;;;;;5073009;28;20017;-27
2023/12/09 13:43:32;;;;;;;2.65;1.05;;;;;;;;;;5073079;28;20523;-27
2023/12/09 13:45:58;;;;;;;4.10;1.42;;;;;;;;;;5073205;28;20044;-27
2023/12/09 13:48:23;;;;;;;2.60;1.08;;;;;;;;;;5071604;28;20479;-27
2023/12/09 13:50:48;;;;;;;6.43;1.60;;;;;;;;;;5072747;28;20024;-27
2023/12/09 13:53:13;;;;;;;5.38;1.27;;;;;;;;;;5072840;28;20024;-27
2023/12/09 13:55:39;;;;;;;4.10;1.42;;;;;;;;;;5072651;28;20491;-27
2023/12/09 13:58:04;;;;;;;9.02;1.20;;;;;;;;;;5072924;28;20032;-27
2023/12/09 14:00:29;;;;;;;5.25;1.50;;;;;;;;;;5072878;28;20055;-27
2023/12/09 14:02:56;;;;;;;4.03;1.27;;;;;;;;;;5072647;28;20044;-27
2023/12/09 14:05:21;;;;;;;4.47;1.48;;;;;;;;;;5072782;28;20028;-27
2023/12/09 14:07:46;;;;;;;4.68;1.40;;;;;;;;;;5072806;28;20031;-27
2023/12/09 14:10:12;;;;;;;3.20;1.38;;;;;;;;;;5072955;28;20021;-27
2023/12/09 14:12:39;;;;;;;4.68;1.17;;;;;;;;;;5072852;28;20074;-27
2023/12/09 14:15:05;;;;;;;4.25;1.33;;;;;;;;;;5072997;28;20016;-27
2023/12/09 14:17:31;;;;;;;5.85;1.35;;;;;;;;;;5073191;28;20025;-27
2023/12/09 14:19:56;;;;;;;2.63;0.98;;;;;;;;;;5072876;28;20018;-27